createdAt,value
2018-04-22T00:00:13.082Z,98034.25
2018-04-22T00:00:44.701Z,98030.00
2018-04-22T00:01:16.269Z,98037.23
2018-04-22T00:01:47.836Z,98033.81
2018-04-22T00:02:19.428Z,98031.25
2018-04-22T00:02:51.034Z,98035.94
2018-04-22T00:03:22.604Z,98026.16
2018-04-22T00:03:54.206Z,98027.42
2018-04-22T00:04:25.790Z,98031.25
2018-04-22T00:04:57.383Z,98028.70
2018-04-22T00:05:29.006Z,98034.24
2018-04-22T00:06:00.609Z,98028.28
2018-04-22T00:06:32.218Z,98030.00
2018-04-22T00:07:03.821Z,98026.59
2018-04-22T00:07:35.429Z,98027.86
2018-04-22T00:08:07.014Z,98027.44
2018-04-22T00:08:38.589Z,98027.48
2018-04-22T00:09:10.198Z,98024.88
2018-04-22T00:09:41.786Z,98027.48
2018-04-22T00:10:13.395Z,98025.31
2018-04-22T00:10:45.036Z,98021.05
2018-04-22T00:11:16.622Z,98018.48
2018-04-22T00:11:48.230Z,98025.73
2018-04-22T00:12:19.845Z,98020.61
2018-04-22T00:12:51.466Z,98024.45
2018-04-22T00:13:23.069Z,98019.77
2018-04-22T00:13:54.678Z,98024.50
2018-04-22T00:14:26.286Z,98025.31
2018-04-22T00:14:57.856Z,98022.76
2018-04-22T00:15:29.424Z,98021.94
2018-04-22T00:16:01.053Z,98023.72
2018-04-22T00:16:32.645Z,98020.70
2018-04-22T00:17:04.250Z,98027.49
2018-04-22T00:17:35.838Z,98016.47
2018-04-22T00:18:07.446Z,98022.81
2018-04-22T00:18:39.054Z,98026.65
2018-04-22T00:19:10.632Z,98026.23
2018-04-22T00:19:42.238Z,98021.54
2018-04-22T00:20:13.808Z,98011.07
2018-04-22T00:20:45.392Z,98028.78
2018-04-22T00:21:17.064Z,98018.56
2018-04-22T00:21:48.668Z,98025.81
2018-04-22T00:22:20.254Z,98019.42
2018-04-22T00:22:51.838Z,98026.70
2018-04-22T00:23:23.438Z,98020.70
2018-04-22T00:23:55.032Z,98018.14
2018-04-22T00:24:26.624Z,98018.14
2018-04-22T00:24:58.219Z,98020.69
2018-04-22T00:25:29.808Z,98021.11
2018-04-22T00:26:01.433Z,98018.12
2018-04-22T00:26:33.078Z,98011.79
2018-04-22T00:27:04.667Z,98019.82
2018-04-22T00:27:36.269Z,98012.58
2018-04-22T00:28:07.856Z,98010.87
2018-04-22T00:28:39.428Z,98013.44
2018-04-22T00:29:10.997Z,98013.42
2018-04-22T00:29:42.588Z,98014.70
2018-04-22T00:30:14.430Z,98013.42
2018-04-22T00:30:46.024Z,98013.86
2018-04-22T00:31:17.636Z,98013.00
2018-04-22T00:31:49.237Z,98010.02
2018-04-22T00:32:20.813Z,98014.72
2018-04-22T00:32:52.426Z,98004.90
2018-04-22T00:33:23.996Z,98015.09
2018-04-22T00:33:55.598Z,98015.08
2018-04-22T00:34:27.182Z,98011.23
2018-04-22T00:34:58.764Z,98013.80
2018-04-22T00:35:30.358Z,98015.93
2018-04-22T00:36:01.968Z,98013.80
2018-04-22T00:36:33.593Z,98013.38
2018-04-22T00:37:05.189Z,98009.95
2018-04-22T00:37:36.762Z,98013.36
2018-04-22T00:38:08.337Z,98010.38
2018-04-22T00:38:39.910Z,98006.97
2018-04-22T00:39:11.480Z,98001.42
2018-04-22T00:39:43.130Z,98009.10
2018-04-22T00:40:14.705Z,98005.69
2018-04-22T00:40:46.273Z,98009.95
2018-04-22T00:41:17.841Z,98011.23
2018-04-22T00:41:49.418Z,98009.53
2018-04-22T00:42:21.017Z,98007.02
2018-04-22T00:42:52.625Z,98013.38
2018-04-22T00:43:24.200Z,98006.13
2018-04-22T00:43:55.831Z,98009.16
2018-04-22T00:44:27.443Z,98002.77
2018-04-22T00:44:59.012Z,98001.91
2018-04-22T00:45:30.614Z,98008.30
2018-04-22T00:46:02.252Z,98008.69
2018-04-22T00:46:33.862Z,98009.59
2018-04-22T00:47:05.470Z,98007.47
2018-04-22T00:47:37.078Z,98010.94
2018-04-22T00:48:08.673Z,98004.48
2018-04-22T00:48:40.264Z,98001.92
2018-04-22T00:49:11.882Z,98007.47
2018-04-22T00:49:43.480Z,98004.07
2018-04-22T00:50:15.067Z,98004.92
2018-04-22T00:50:46.715Z,98006.61
2018-04-22T00:51:18.294Z,98004.86
2018-04-22T00:51:49.893Z,98004.78
2018-04-22T00:52:21.494Z,98001.30
2018-04-22T00:52:53.094Z,98005.55
2018-04-22T00:53:24.686Z,97999.14
2018-04-22T00:53:56.252Z,97997.82
2018-04-22T00:54:27.847Z,98000.38
2018-04-22T00:54:59.416Z,97996.11
2018-04-22T00:55:31.057Z,97994.81
2018-04-22T00:56:02.645Z,97991.83
2018-04-22T00:56:34.222Z,97997.37
2018-04-22T00:57:05.854Z,97994.80
2018-04-22T00:57:37.522Z,97991.83
2018-04-22T00:58:09.129Z,97989.29
2018-04-22T00:58:40.714Z,97995.23
2018-04-22T00:59:12.313Z,97989.27
2018-04-22T00:59:43.894Z,97985.84
2018-04-22T01:00:15.474Z,97990.11
2018-04-22T01:00:47.058Z,97987.13
2018-04-22T01:01:18.638Z,97990.13
2018-04-22T01:01:50.228Z,97985.44
2018-04-22T01:02:21.808Z,97987.20
2018-04-22T01:02:53.440Z,97991.83
2018-04-22T01:03:25.049Z,97990.97
2018-04-22T01:03:56.638Z,97982.86
2018-04-22T01:04:28.204Z,97987.98
2018-04-22T01:04:59.797Z,97988.41
2018-04-22T01:05:31.446Z,97993.10
2018-04-22T01:06:03.030Z,97983.72
2018-04-22T01:06:34.634Z,97990.97
2018-04-22T01:07:06.242Z,97990.98
2018-04-22T01:07:37.836Z,97995.23
2018-04-22T01:08:09.450Z,97992.69
2018-04-22T01:08:41.020Z,97988.43
2018-04-22T01:09:12.616Z,97990.13
2018-04-22T01:09:44.238Z,97985.86
2018-04-22T01:10:15.833Z,97990.13
2018-04-22T01:10:47.429Z,97988.06
2018-04-22T01:11:19.033Z,97985.02
2018-04-22T01:11:50.638Z,97989.71
2018-04-22T01:12:22.247Z,97985.03
2018-04-22T01:12:53.833Z,97985.02
2018-04-22T01:13:25.478Z,97985.03
2018-04-22T01:13:57.066Z,97985.03
2018-04-22T01:14:28.671Z,97985.88
2018-04-22T01:15:00.262Z,97989.33
2018-04-22T01:15:31.832Z,97986.78
2018-04-22T01:16:03.478Z,97989.71
2018-04-22T01:16:35.111Z,97983.73
2018-04-22T01:17:06.686Z,97983.31
2018-04-22T01:17:38.274Z,97993.53
2018-04-22T01:18:10.048Z,97987.16
2018-04-22T01:18:41.652Z,97985.45
2018-04-22T01:19:13.235Z,97986.31
2018-04-22T01:19:44.874Z,97983.36
2018-04-22T01:20:16.479Z,97982.08
2018-04-22T01:20:48.085Z,97985.93
2018-04-22T01:21:19.684Z,97986.78
2018-04-22T01:21:51.290Z,97982.95
2018-04-22T01:22:22.893Z,97983.81
2018-04-22T01:22:54.552Z,97982.95
2018-04-22T01:23:26.137Z,97984.30
2018-04-22T01:23:57.718Z,97987.66
2018-04-22T01:24:29.303Z,97984.30
2018-04-22T01:25:00.914Z,97992.34
2018-04-22T01:25:32.538Z,97988.09
2018-04-22T01:26:04.122Z,97981.69
2018-04-22T01:26:35.733Z,97987.70
2018-04-22T01:27:07.314Z,97989.35
2018-04-22T01:27:38.918Z,97994.09
2018-04-22T01:28:10.514Z,97985.14
2018-04-22T01:28:42.136Z,97993.20
2018-04-22T01:29:13.742Z,97989.41
2018-04-22T01:29:45.349Z,97988.55
2018-04-22T01:30:16.954Z,97986.81
2018-04-22T01:30:48.534Z,97992.83
2018-04-22T01:31:20.133Z,97992.39
2018-04-22T01:31:51.743Z,97995.37
2018-04-22T01:32:23.317Z,97990.64
2018-04-22T01:32:54.926Z,97991.11
2018-04-22T01:33:26.559Z,97987.73
2018-04-22T01:33:58.153Z,97994.95
2018-04-22T01:34:29.734Z,97995.80
2018-04-22T01:35:01.315Z,97991.97
2018-04-22T01:35:32.917Z,97992.39
2018-04-22T01:36:04.549Z,97991.98
2018-04-22T01:36:36.125Z,97988.14
2018-04-22T01:37:07.705Z,97990.64
2018-04-22T01:37:39.310Z,97991.53
2018-04-22T01:38:10.920Z,97990.69
2018-04-22T01:38:42.496Z,97993.25
2018-04-22T01:39:14.097Z,97988.55
2018-04-22T01:39:45.679Z,97985.53
2018-04-22T01:40:17.334Z,97993.67
2018-04-22T01:40:48.925Z,97993.20
2018-04-22T01:41:20.509Z,97992.40
2018-04-22T01:41:52.104Z,97988.98
2018-04-22T01:42:23.691Z,97993.68
2018-04-22T01:42:55.280Z,97988.13
2018-04-22T01:43:26.886Z,97986.43
2018-04-22T01:43:58.479Z,97984.73
2018-04-22T01:44:30.076Z,97988.14
2018-04-22T01:45:01.682Z,97990.28
2018-04-22T01:45:33.343Z,97992.41
2018-04-22T01:46:04.934Z,97988.16
2018-04-22T01:46:36.537Z,97991.17
2018-04-22T01:47:08.122Z,97989.47
2018-04-22T01:47:39.688Z,97991.56
2018-04-22T01:48:11.256Z,97992.03
2018-04-22T01:48:42.834Z,97992.84
2018-04-22T01:49:14.438Z,97994.55
2018-04-22T01:49:46.026Z,97992.45
2018-04-22T01:50:17.607Z,97987.36
2018-04-22T01:50:49.217Z,97989.01
2018-04-22T01:51:20.822Z,97986.45
2018-04-22T01:51:52.401Z,97984.78
2018-04-22T01:52:23.982Z,97994.11
2018-04-22T01:52:55.582Z,97993.68
2018-04-22T01:53:27.196Z,97992.41
2018-04-22T01:53:58.806Z,97991.55
2018-04-22T01:54:30.394Z,97991.98
2018-04-22T01:55:01.975Z,97993.73
2018-04-22T01:55:33.568Z,97992.41
2018-04-22T01:56:05.205Z,97990.29
2018-04-22T01:56:36.790Z,97989.90
2018-04-22T01:57:08.380Z,97989.90
2018-04-22T01:57:39.962Z,97988.20
2018-04-22T01:58:11.546Z,97986.07
2018-04-22T01:58:43.136Z,97986.51
2018-04-22T01:59:14.762Z,97994.60
2018-04-22T01:59:46.332Z,97989.06
2018-04-22T02:00:17.910Z,97989.92
2018-04-22T02:00:49.487Z,97988.20
2018-04-22T02:01:21.057Z,97990.75
2018-04-22T02:01:52.690Z,97989.05
2018-04-22T02:02:24.289Z,97983.09
2018-04-22T02:02:55.864Z,97984.80
2018-04-22T02:03:27.454Z,97983.95
2018-04-22T02:03:59.049Z,97981.80
2018-04-22T02:04:30.628Z,97982.67
2018-04-22T02:05:02.230Z,97983.09
2018-04-22T02:05:33.824Z,97983.95
2018-04-22T02:06:05.436Z,97984.81
2018-04-22T02:06:37.033Z,97978.89
2018-04-22T02:07:08.690Z,97979.27
2018-04-22T02:07:40.302Z,97982.26
2018-04-22T02:08:11.918Z,97980.55
2018-04-22T02:08:43.502Z,97980.97
2018-04-22T02:09:15.112Z,97980.55
2018-04-22T02:09:46.708Z,97977.98
2018-04-22T02:10:18.341Z,97984.80
2018-04-22T02:10:49.921Z,97979.27
2018-04-22T02:11:21.504Z,97976.33
2018-04-22T02:11:53.106Z,97974.63
2018-04-22T02:12:24.710Z,97980.60
2018-04-22T02:12:56.290Z,97975.48
2018-04-22T02:13:27.870Z,97974.63
2018-04-22T02:13:59.437Z,97978.05
2018-04-22T02:14:31.045Z,97977.63
2018-04-22T02:15:02.651Z,97975.93
2018-04-22T02:15:34.289Z,97968.69
2018-04-22T02:16:05.874Z,97973.81
2018-04-22T02:16:37.479Z,97969.97
2018-04-22T02:17:09.072Z,97971.25
2018-04-22T02:17:40.653Z,97978.48
2018-04-22T02:18:12.264Z,97974.23
2018-04-22T02:18:43.846Z,97978.92
2018-04-22T02:19:15.455Z,97969.55
2018-04-22T02:19:47.036Z,97973.80
2018-04-22T02:20:18.640Z,97975.51
2018-04-22T02:20:50.285Z,97983.59
2018-04-22T02:21:21.857Z,97971.25
2018-04-22T02:21:53.426Z,97974.66
2018-04-22T02:22:25.010Z,97971.73
2018-04-22T02:22:56.610Z,97972.57
2018-04-22T02:23:28.194Z,97974.70
2018-04-22T02:23:59.774Z,97972.57
2018-04-22T02:24:31.387Z,97972.15
2018-04-22T02:25:02.994Z,97967.45
2018-04-22T02:25:34.564Z,97969.59
2018-04-22T02:26:06.215Z,97969.18
2018-04-22T02:26:37.792Z,97976.42
2018-04-22T02:27:09.396Z,97968.75
2018-04-22T02:27:40.987Z,97967.92
2018-04-22T02:28:12.567Z,97968.75
2018-04-22T02:28:44.156Z,97969.62
2018-04-22T02:29:15.741Z,97967.05
2018-04-22T02:29:47.318Z,97968.80
2018-04-22T02:30:18.926Z,97970.08
2018-04-22T02:30:50.510Z,97973.48
2018-04-22T02:31:22.143Z,97980.28
2018-04-22T02:31:53.746Z,97972.61
2018-04-22T02:32:25.334Z,97961.27
2018-04-22T02:32:56.929Z,97973.47
2018-04-22T02:33:28.519Z,97975.17
2018-04-22T02:34:00.113Z,97978.92
2018-04-22T02:34:31.704Z,97974.14
2018-04-22T02:35:03.311Z,97962.27
2018-04-22T02:35:34.918Z,97970.73
2018-04-22T02:36:06.507Z,97968.69
2018-04-22T02:36:38.125Z,97963.22
2018-04-22T02:37:09.692Z,97964.97
2018-04-22T02:37:41.280Z,97960.39
2018-04-22T02:38:12.884Z,97957.00
2018-04-22T02:38:44.456Z,97957.91
2018-04-22T02:39:16.033Z,97960.06
2018-04-22T02:39:47.616Z,97960.07
2018-04-22T02:40:19.189Z,97962.23
2018-04-22T02:40:50.802Z,97958.84
2018-04-22T02:41:22.402Z,97961.41
2018-04-22T02:41:54.050Z,97965.23
2018-04-22T02:42:25.625Z,97962.69
2018-04-22T02:42:57.221Z,97954.22
2018-04-22T02:43:28.843Z,97955.93
2018-04-22T02:44:00.422Z,97960.63
2018-04-22T02:44:31.998Z,97956.38
2018-04-22T02:45:03.651Z,97959.34
2018-04-22T02:45:35.257Z,97963.19
2018-04-22T02:46:06.867Z,97958.08
2018-04-22T02:46:38.473Z,97964.05
2018-04-22T02:47:10.092Z,97951.69
2018-04-22T02:47:41.707Z,97955.52
2018-04-22T02:48:13.358Z,97948.70
2018-04-22T02:48:44.938Z,97959.36
2018-04-22T02:49:16.529Z,97951.27
2018-04-22T02:49:48.118Z,97952.95
2018-04-22T02:50:19.723Z,97950.38
2018-04-22T02:50:51.332Z,97951.25
2018-04-22T02:51:22.948Z,97956.37
2018-04-22T02:51:54.564Z,97954.66
2018-04-22T02:52:26.181Z,97946.14
2018-04-22T02:52:57.827Z,97950.82
2018-04-22T02:53:29.434Z,97955.09
2018-04-22T02:54:01.005Z,97949.97
2018-04-22T02:54:32.599Z,97949.13
2018-04-22T02:55:04.186Z,97949.13
2018-04-22T02:55:35.794Z,97953.39
2018-04-22T02:56:07.402Z,97951.69
2018-04-22T02:56:38.982Z,97946.55
2018-04-22T02:57:10.581Z,97953.80
2018-04-22T02:57:42.216Z,97946.97
2018-04-22T02:58:13.843Z,97939.76
2018-04-22T02:58:45.412Z,97947.39
2018-04-22T02:59:17.040Z,97951.24
2018-04-22T02:59:48.646Z,97948.31
2018-04-22T03:00:20.247Z,97951.67
2018-04-22T03:00:51.893Z,97949.98
2018-04-22T03:01:23.464Z,97955.51
2018-04-22T03:01:55.069Z,97953.38
2018-04-22T03:02:26.664Z,97949.06
2018-04-22T03:02:58.270Z,97947.35
2018-04-22T03:03:29.877Z,97952.03
2018-04-22T03:04:01.486Z,97946.91
2018-04-22T03:04:33.114Z,97950.32
2018-04-22T03:05:04.754Z,97954.14
2018-04-22T03:05:36.370Z,97946.47
2018-04-22T03:06:07.940Z,97946.42
2018-04-22T03:06:39.531Z,97940.88
2018-04-22T03:07:11.134Z,97941.30
2018-04-22T03:07:42.738Z,97944.27
2018-04-22T03:08:14.326Z,97946.83
2018-04-22T03:08:45.893Z,97940.86
2018-04-22T03:09:17.502Z,97945.12
2018-04-22T03:09:49.090Z,97943.84
2018-04-22T03:10:20.724Z,97945.51
2018-04-22T03:10:52.296Z,97944.27
2018-04-22T03:11:23.906Z,97938.73
2018-04-22T03:11:55.510Z,97943.84
2018-04-22T03:12:27.121Z,97942.99
2018-04-22T03:12:58.719Z,97943.84
2018-04-22T03:13:30.306Z,97938.72
2018-04-22T03:14:01.877Z,97944.23
2018-04-22T03:14:34.508Z,97942.99
2018-04-22T03:15:06.154Z,97945.97
2018-04-22T03:15:37.737Z,97945.08
2018-04-22T03:16:09.318Z,97945.50
2018-04-22T03:16:40.913Z,97943.36
2018-04-22T03:17:12.556Z,97946.33
2018-04-22T03:17:44.173Z,97914.03
2018-04-22T03:18:15.927Z,97944.20
2018-04-22T03:18:47.501Z,97944.20
2018-04-22T03:19:19.102Z,97940.80
2018-04-22T03:19:50.705Z,97938.73
2018-04-22T03:20:22.304Z,97942.57
2018-04-22T03:20:53.877Z,97940.88
2018-04-22T03:21:25.478Z,97937.98
2018-04-22T03:21:57.084Z,97942.23
2018-04-22T03:22:28.704Z,97941.80
2018-04-22T03:23:00.272Z,97937.60
2018-04-22T03:23:31.870Z,97940.58
2018-04-22T03:24:03.445Z,97941.87
2018-04-22T03:24:35.022Z,97937.61
2018-04-22T03:25:06.616Z,97940.60
2018-04-22T03:25:38.189Z,97942.73
2018-04-22T03:26:09.770Z,97938.95
2018-04-22T03:26:41.336Z,97940.67
2018-04-22T03:27:12.922Z,97932.16
2018-04-22T03:27:44.556Z,97939.82
2018-04-22T03:28:16.152Z,97947.54
2018-04-22T03:28:47.725Z,97938.59
2018-04-22T03:29:19.296Z,97940.72
2018-04-22T03:29:50.896Z,97939.45
2018-04-22T03:30:22.478Z,97937.75
2018-04-22T03:30:54.081Z,97940.32
2018-04-22T03:31:25.656Z,97936.05
2018-04-22T03:31:57.259Z,97939.05
2018-04-22T03:32:28.831Z,97930.14
2018-04-22T03:33:00.454Z,97938.20
2018-04-22T03:33:32.058Z,97941.64
2018-04-22T03:34:03.661Z,97933.98
2018-04-22T03:34:35.258Z,97944.20
2018-04-22T03:35:06.862Z,97936.11
2018-04-22T03:35:38.434Z,97938.20
2018-04-22T03:36:10.014Z,97942.00
2018-04-22T03:36:41.580Z,97940.30
2018-04-22T03:37:13.202Z,97936.90
2018-04-22T03:37:44.804Z,97937.32
2018-04-22T03:38:16.406Z,97934.77
2018-04-22T03:38:48.017Z,97935.19
2018-04-22T03:39:19.618Z,97932.20
2018-04-22T03:39:51.203Z,97939.44
2018-04-22T03:40:22.772Z,97931.35
2018-04-22T03:40:54.474Z,97931.38
2018-04-22T03:41:26.131Z,97937.32
2018-04-22T03:41:57.700Z,97931.38
2018-04-22T03:42:29.336Z,97939.90
2018-04-22T03:43:00.946Z,97932.27
2018-04-22T03:43:32.562Z,97934.84
2018-04-22T03:44:04.153Z,97930.16
2018-04-22T03:44:35.734Z,97928.03
2018-04-22T03:45:07.318Z,97931.45
2018-04-22T03:45:38.934Z,97933.15
2018-04-22T03:46:10.543Z,97932.34
2018-04-22T03:46:42.157Z,97934.47
2018-04-22T03:47:13.728Z,97932.78
2018-04-22T03:47:45.330Z,97932.78
2018-04-22T03:48:16.918Z,97935.77
2018-04-22T03:48:48.522Z,97935.34
2018-04-22T03:49:20.130Z,97934.91
2018-04-22T03:49:51.724Z,97931.09
2018-04-22T03:50:23.296Z,97935.78
2018-04-22T03:50:54.902Z,97932.84
2018-04-22T03:51:26.505Z,97932.38
2018-04-22T03:51:58.144Z,97939.62
2018-04-22T03:52:29.716Z,97936.20
2018-04-22T03:53:01.294Z,97939.62
2018-04-22T03:53:32.878Z,97934.97
2018-04-22T03:54:04.486Z,97929.44
2018-04-22T03:54:36.106Z,97936.68
2018-04-22T03:55:07.668Z,97932.84
2018-04-22T03:55:39.249Z,97934.97
2018-04-22T03:56:10.858Z,97928.16
2018-04-22T03:56:42.490Z,97934.97
2018-04-22T03:57:14.057Z,97927.30
2018-04-22T03:57:45.638Z,97928.95
2018-04-22T03:58:17.232Z,97925.11
2018-04-22T03:58:48.815Z,97924.27
2018-04-22T03:59:20.404Z,97929.36
2018-04-22T03:59:52.005Z,97925.48
2018-04-22T04:00:23.626Z,97928.03
2018-04-22T04:00:55.209Z,97927.61
2018-04-22T04:01:26.810Z,97934.00
2018-04-22T04:01:58.438Z,97914.59
2018-04-22T04:02:30.014Z,97929.73
2018-04-22T04:03:01.598Z,97934.85
2018-04-22T04:03:33.208Z,97936.55
2018-04-22T04:04:04.861Z,97935.70
2018-04-22T04:04:36.465Z,97935.70
2018-04-22T04:05:08.093Z,97933.57
2018-04-22T04:05:39.698Z,97934.00
2018-04-22T04:06:11.310Z,97936.56
2018-04-22T04:06:42.881Z,97929.79
2018-04-22T04:07:14.480Z,97931.92
2018-04-22T04:07:46.088Z,97934.06
2018-04-22T04:08:17.660Z,97929.87
2018-04-22T04:08:49.262Z,97934.49
2018-04-22T04:09:20.920Z,97934.91
2018-04-22T04:09:52.590Z,97935.77
2018-04-22T04:10:24.168Z,97930.66
2018-04-22T04:10:55.746Z,97928.11
2018-04-22T04:11:27.379Z,97931.14
2018-04-22T04:11:58.982Z,97925.60
2018-04-22T04:12:30.570Z,97929.02
2018-04-22T04:13:02.170Z,97925.63
2018-04-22T04:13:33.741Z,97927.31
2018-04-22T04:14:05.354Z,97930.73
2018-04-22T04:14:36.929Z,97929.02
2018-04-22T04:15:08.560Z,97928.16
2018-04-22T04:15:40.157Z,97923.48
2018-04-22T04:16:11.729Z,97923.06
2018-04-22T04:16:43.306Z,97927.31
2018-04-22T04:17:14.885Z,97926.90
2018-04-22T04:17:46.465Z,97924.34
2018-04-22T04:18:18.042Z,97926.95
2018-04-22T04:18:49.621Z,97929.02
2018-04-22T04:19:21.266Z,97930.72
2018-04-22T04:19:52.857Z,97926.45
2018-04-22T04:20:24.486Z,97926.84
2018-04-22T04:20:56.076Z,97930.66
2018-04-22T04:21:27.681Z,97928.95
2018-04-22T04:21:59.285Z,97925.63
2018-04-22T04:22:30.885Z,97929.80
2018-04-22T04:23:02.479Z,97927.68
2018-04-22T04:23:34.076Z,97927.68
2018-04-22T04:24:05.702Z,97927.68
2018-04-22T04:24:37.272Z,97929.39
2018-04-22T04:25:08.850Z,97928.11
2018-04-22T04:25:40.441Z,97922.19
2018-04-22T04:26:12.050Z,97922.97
2018-04-22T04:26:43.639Z,97923.41
2018-04-22T04:27:15.272Z,97927.23
2018-04-22T04:27:46.863Z,97929.31
2018-04-22T04:28:18.470Z,97921.65
2018-04-22T04:28:50.082Z,97925.91
2018-04-22T04:29:21.652Z,97925.47
2018-04-22T04:29:53.281Z,97922.07
2018-04-22T04:30:24.862Z,97927.19
2018-04-22T04:30:56.442Z,97924.62
2018-04-22T04:31:28.050Z,97928.46
2018-04-22T04:31:59.653Z,97931.02
2018-04-22T04:32:31.284Z,97928.89
2018-04-22T04:33:02.876Z,97931.88
2018-04-22T04:33:34.476Z,97923.34
2018-04-22T04:34:06.090Z,97930.59
2018-04-22T04:34:37.670Z,97926.76
2018-04-22T04:35:09.274Z,97922.98
2018-04-22T04:35:40.877Z,97924.68
2018-04-22T04:36:12.452Z,97930.17
2018-04-22T04:36:44.041Z,97928.08
2018-04-22T04:37:15.616Z,97925.10
2018-04-22T04:37:47.233Z,97933.63
2018-04-22T04:38:18.858Z,97928.09
2018-04-22T04:38:50.425Z,97928.53
2018-04-22T04:39:22.029Z,97923.41
2018-04-22T04:39:53.638Z,97931.91
2018-04-22T04:40:25.242Z,97924.20
2018-04-22T04:40:56.836Z,97929.73
2018-04-22T04:41:28.442Z,97927.59
2018-04-22T04:42:00.012Z,97919.92
2018-04-22T04:42:31.613Z,97926.31
2018-04-22T04:43:03.240Z,97926.70
2018-04-22T04:43:34.863Z,97925.42
2018-04-22T04:44:06.486Z,97925.88
2018-04-22T04:44:38.069Z,97927.16
2018-04-22T04:45:09.647Z,97927.58
2018-04-22T04:45:41.250Z,97928.44
2018-04-22T04:46:12.853Z,97922.05
2018-04-22T04:46:44.448Z,97927.17
2018-04-22T04:47:16.023Z,97924.20
2018-04-22T04:47:47.630Z,97928.50
2018-04-22T04:48:19.261Z,97923.83
2018-04-22T04:48:50.862Z,97925.52
2018-04-22T04:49:22.461Z,97925.97
2018-04-22T04:49:54.086Z,97927.61
2018-04-22T04:50:25.674Z,97925.95
2018-04-22T04:50:57.259Z,97925.52
2018-04-22T04:51:28.847Z,97934.01
2018-04-22T04:52:00.462Z,97929.73
2018-04-22T04:52:32.059Z,97928.46
2018-04-22T04:53:03.711Z,97926.76
2018-04-22T04:53:35.362Z,97931.02
2018-04-22T04:54:06.947Z,97931.45
2018-04-22T04:54:38.562Z,97922.92
2018-04-22T04:55:10.186Z,97928.88
2018-04-22T04:55:41.780Z,97925.47
2018-04-22T04:56:13.370Z,97930.16
2018-04-22T04:56:44.963Z,97929.73
2018-04-22T04:57:16.555Z,97935.27
2018-04-22T04:57:48.202Z,97931.44
2018-04-22T04:58:19.793Z,97928.02
2018-04-22T04:58:51.438Z,97931.00
2018-04-22T04:59:23.046Z,97934.00
2018-04-22T04:59:54.681Z,97933.56
2018-04-22T05:00:26.276Z,97935.27
2018-04-22T05:00:57.886Z,97927.23
2018-04-22T05:01:29.474Z,97925.88
2018-04-22T05:02:01.078Z,97929.72
2018-04-22T05:02:32.694Z,97933.97
2018-04-22T05:03:04.268Z,97927.58
2018-04-22T05:03:35.865Z,97931.85
2018-04-22T05:04:07.447Z,97929.30
2018-04-22T05:04:39.030Z,97928.86
2018-04-22T05:05:10.665Z,97930.17
2018-04-22T05:05:42.240Z,97928.45
2018-04-22T05:06:13.926Z,97931.42
2018-04-22T05:06:45.534Z,97934.42
2018-04-22T05:07:17.118Z,97934.00
2018-04-22T05:07:48.695Z,97934.85
2018-04-22T05:08:20.274Z,97930.58
2018-04-22T05:08:51.936Z,97929.73
2018-04-22T05:09:23.518Z,97937.83
2018-04-22T05:09:55.122Z,97936.98
2018-04-22T05:10:26.692Z,97939.11
2018-04-22T05:10:58.284Z,97935.33
2018-04-22T05:11:29.926Z,97934.84
2018-04-22T05:12:01.505Z,97937.41
2018-04-22T05:12:33.093Z,97929.73
2018-04-22T05:13:04.670Z,97936.13
2018-04-22T05:13:36.250Z,97937.83
2018-04-22T05:14:07.858Z,97935.27
2018-04-22T05:14:39.452Z,97936.56
2018-04-22T05:15:11.034Z,97935.34
2018-04-22T05:15:42.622Z,97936.98
2018-04-22T05:16:14.222Z,97943.36
2018-04-22T05:16:45.858Z,97944.66
2018-04-22T05:17:17.435Z,97942.09
2018-04-22T05:17:49.021Z,97939.11
2018-04-22T05:18:20.622Z,97939.96
2018-04-22T05:18:52.237Z,97941.23
2018-04-22T05:19:23.808Z,97946.36
2018-04-22T05:19:55.393Z,97942.56
2018-04-22T05:20:26.983Z,97937.41
2018-04-22T05:20:58.566Z,97945.06
2018-04-22T05:21:30.216Z,97941.66
2018-04-22T05:22:01.881Z,97939.90
2018-04-22T05:22:33.479Z,97939.03
2018-04-22T05:23:05.082Z,97947.11
2018-04-22T05:23:36.694Z,97941.52
2018-04-22T05:24:08.296Z,97940.72
2018-04-22T05:24:39.906Z,97943.65
2018-04-22T05:25:11.499Z,97936.40
2018-04-22T05:25:43.097Z,97940.22
2018-04-22T05:26:14.705Z,97944.44
2018-04-22T05:26:46.310Z,97937.60
2018-04-22T05:27:17.952Z,97935.92
2018-04-22T05:27:49.570Z,97943.94
2018-04-22T05:28:21.160Z,97935.42
2018-04-22T05:28:52.752Z,97942.66
2018-04-22T05:29:24.344Z,97933.36
2018-04-22T05:29:55.948Z,97940.95
2018-04-22T05:30:27.558Z,97936.27
2018-04-22T05:30:59.143Z,97941.00
2018-04-22T05:31:30.741Z,97942.67
2018-04-22T05:32:02.354Z,97945.22
2018-04-22T05:32:33.982Z,97948.20
2018-04-22T05:33:05.566Z,97943.95
2018-04-22T05:33:37.214Z,97941.81
2018-04-22T05:34:08.825Z,97946.08
2018-04-22T05:34:40.407Z,97943.09
2018-04-22T05:35:12.010Z,97943.50
2018-04-22T05:35:43.603Z,97940.04
2018-04-22T05:36:15.186Z,97942.57
2018-04-22T05:36:46.790Z,97936.56
2018-04-22T05:37:18.431Z,97936.91
2018-04-22T05:37:50.014Z,97937.38
2018-04-22T05:38:21.654Z,97939.45
2018-04-22T05:38:53.262Z,97940.67
2018-04-22T05:39:24.856Z,97947.48
2018-04-22T05:39:56.463Z,97941.07
2018-04-22T05:40:28.075Z,97943.17
2018-04-22T05:40:59.673Z,97944.38
2018-04-22T05:41:31.277Z,97942.97
2018-04-22T05:42:02.882Z,97943.39
2018-04-22T05:42:34.480Z,97942.09
2018-04-22T05:43:06.172Z,97945.88
2018-04-22T05:43:37.878Z,97944.52
2018-04-22T05:44:09.458Z,97946.14
2018-04-22T05:44:41.069Z,97940.10
2018-04-22T05:45:12.678Z,97944.38
2018-04-22T05:45:44.265Z,97942.22
2018-04-22T05:46:15.874Z,97939.23
2018-04-22T05:46:47.486Z,97941.28
2018-04-22T05:47:19.114Z,97941.22
2018-04-22T05:47:50.718Z,97934.75
2018-04-22T05:48:22.312Z,97941.56
2018-04-22T05:48:53.897Z,97944.92
2018-04-22T05:49:25.474Z,97938.95
2018-04-22T05:49:57.086Z,97936.37
2018-04-22T05:50:28.674Z,97939.79
2018-04-22T05:51:00.244Z,97938.44
2018-04-22T05:51:31.835Z,97939.34
2018-04-22T05:52:03.462Z,97940.08
2018-04-22T05:52:35.048Z,97937.43
2018-04-22T05:53:06.616Z,97939.92
2018-04-22T05:53:38.198Z,97938.19
2018-04-22T05:54:09.801Z,97941.97
2018-04-22T05:54:41.372Z,97941.53
2018-04-22T05:55:12.995Z,97939.34
2018-04-22T05:55:44.602Z,97940.59
2018-04-22T05:56:16.191Z,97942.67
2018-04-22T05:56:47.818Z,97939.26
2018-04-22T05:57:19.388Z,97945.64
2018-04-22T05:57:50.956Z,97938.41
2018-04-22T05:58:22.655Z,97938.82
2018-04-22T05:58:54.267Z,97935.90
2018-04-22T05:59:25.854Z,97937.96
2018-04-22T05:59:57.425Z,97935.42
2018-04-22T06:00:29.042Z,97939.23
2018-04-22T06:01:00.622Z,97937.96
2018-04-22T06:01:32.195Z,97934.92
2018-04-22T06:02:03.846Z,97938.75
2018-04-22T06:02:35.441Z,97938.67
2018-04-22T06:03:07.124Z,97935.50
2018-04-22T06:03:38.716Z,97939.59
2018-04-22T06:04:10.298Z,97935.28
2018-04-22T06:04:41.877Z,97933.06
2018-04-22T06:05:13.486Z,97934.76
2018-04-22T06:05:45.098Z,97930.58
2018-04-22T06:06:16.716Z,97930.16
2018-04-22T06:06:48.318Z,97934.02
2018-04-22T06:07:20.792Z,97931.59
2018-04-22T06:07:52.428Z,97938.02
2018-04-22T06:08:24.020Z,97932.94
2018-04-22T06:08:55.635Z,97931.75
2018-04-22T06:09:27.218Z,97931.23
2018-04-22T06:09:58.783Z,97935.95
2018-04-22T06:10:30.386Z,97934.68
2018-04-22T06:11:01.974Z,97935.15